Time;durP1;ratioP1;P1;durP2;ratioP2;P2;SDS_P1;SDS_P2;PMS_P1;PMS_P2;Temp;Humidity;BMP_temperature;BMP_pressure;BME280_temperature;BME280_humidity;BME280_pressure;Samples;Min_cycle;Max_cycle;Signal;HPM_P1;HPM_P2
2022/08/07 00:01:10;;;;;;;10.55;6.10;;;;;;;;;;4976467;28;20058;-82
2022/08/07 00:03:36;;;;;;;8.32;6.10;;;;;;;;;;4979109;28;20069;-80
2022/08/07 00:06:02;;;;;;;7.68;5.75;;;;;;;;;;4977567;28;20034;-82
2022/08/07 00:08:31;;;;;;;8.05;5.60;;;;;;;;;;4984337;28;20408;-81
2022/08/07 00:10:57;;;;;;;6.45;5.43;;;;;;;;;;4971991;28;20030;-82
2022/08/07 00:13:23;;;;;;;8.70;6.50;;;;;;;;;;4980299;28;20026;-81
2022/08/07 00:15:50;;;;;;;9.13;6.68;;;;;;;;;;4961874;28;20033;-82
2022/08/07 00:18:19;;;;;;;7.82;5.80;;;;;;;;;;4960148;28;20065;-80
2022/08/07 00:20:45;;;;;;;7.88;5.78;;;;;;;;;;4975416;28;20038;-82
2022/08/07 00:23:10;;;;;;;8.63;5.88;;;;;;;;;;4976056;28;20113;-82
2022/08/07 00:25:36;;;;;;;8.43;5.50;;;;;;;;;;4958859;28;20150;-82
2022/08/07 00:28:02;;;;;;;8.80;5.60;;;;;;;;;;4976486;28;20118;-82
2022/08/07 00:30:28;;;;;;;11.32;6.00;;;;;;;;;;4975112;28;20092;-82
2022/08/07 00:32:55;;;;;;;9.07;5.63;;;;;;;;;;4975632;28;20054;-82
2022/08/07 00:35:22;;;;;;;10.23;6.03;;;;;;;;;;4975820;28;20058;-82
2022/08/07 00:37:47;;;;;;;10.27;6.05;;;;;;;;;;4975147;28;20035;-81
2022/08/07 00:40:14;;;;;;;8.90;6.07;;;;;;;;;;4975644;28;20092;-82
2022/08/07 00:42:40;;;;;;;8.98;5.20;;;;;;;;;;4976737;28;20081;-82
2022/08/07 00:45:07;;;;;;;9.52;6.00;;;;;;;;;;4974431;28;20038;-82
2022/08/07 00:47:33;;;;;;;7.55;4.88;;;;;;;;;;4959503;28;20031;-82
2022/08/07 00:49:59;;;;;;;8.07;5.82;;;;;;;;;;4975613;28;20073;-82
2022/08/07 00:52:24;;;;;;;8.02;4.72;;;;;;;;;;4975487;28;20093;-81
2022/08/07 00:54:51;;;;;;;6.22;4.43;;;;;;;;;;4958595;28;20058;-81
2022/08/07 00:57:17;;;;;;;11.35;5.47;;;;;;;;;;4976098;28;20046;-82
2022/08/07 00:59:42;;;;;;;6.10;4.45;;;;;;;;;;4975294;28;20038;-82
2022/08/07 01:02:09;;;;;;;10.20;5.35;;;;;;;;;;4975194;28;20035;-80
2022/08/07 01:04:36;;;;;;;7.78;4.88;;;;;;;;;;4974356;28;20142;-82
2022/08/07 01:07:02;;;;;;;7.97;5.25;;;;;;;;;;4976162;28;20074;-82
2022/08/07 01:09:28;;;;;;;9.75;5.35;;;;;;;;;;4975263;28;20055;-81
2022/08/07 01:11:54;;;;;;;9.43;5.13;;;;;;;;;;4976295;28;20034;-82
2022/08/07 01:14:21;;;;;;;7.78;4.65;;;;;;;;;;4975041;28;20046;-82
2022/08/07 01:16:48;;;;;;;7.45;5.10;;;;;;;;;;4974847;28;20031;-82
2022/08/07 01:19:17;;;;;;;9.13;5.65;;;;;;;;;;4975763;28;20117;-82
2022/08/07 01:21:44;;;;;;;6.90;5.20;;;;;;;;;;4958715;28;20034;-82
2022/08/07 01:24:10;;;;;;;6.93;4.45;;;;;;;;;;4958206;28;20038;-82
2022/08/07 01:26:36;;;;;;;8.10;4.60;;;;;;;;;;4974711;28;20035;-80
2022/08/07 01:29:03;;;;;;;10.30;4.38;;;;;;;;;;4974678;28;20043;-82
2022/08/07 01:31:32;;;;;;;8.45;4.28;;;;;;;;;;4974753;28;20039;-82
2022/08/07 01:34:00;;;;;;;5.85;4.10;;;;;;;;;;4974548;28;20423;-81
2022/08/07 01:36:31;;;;;;;6.35;4.03;;;;;;;;;;4962391;28;20246;-81
2022/08/07 01:38:58;;;;;;;8.25;4.50;;;;;;;;;;4978891;28;20030;-82
2022/08/07 01:41:25;;;;;;;5.45;4.10;;;;;;;;;;4978410;28;20105;-81
2022/08/07 01:43:51;;;;;;;4.90;3.90;;;;;;;;;;4978188;28;20702;-82
2022/08/07 01:46:19;;;;;;;9.32;4.82;;;;;;;;;;4961487;28;20031;-81
2022/08/07 01:48:46;;;;;;;6.43;4.72;;;;;;;;;;4977873;28;20030;-82
2022/08/07 01:51:23;;;;;;;6.15;4.75;;;;;;;;;;4961914;28;20121;-82
2022/08/07 01:53:58;;;;;;;6.90;4.75;;;;;;;;;;4977933;28;20455;-81
2022/08/07 01:56:47;;;;;;;9.60;5.05;;;;;;;;;;4962089;28;20030;-81
2022/08/07 01:59:20;;;;;;;8.75;5.05;;;;;;;;;;4977951;28;20034;-82
2022/08/07 02:01:55;;;;;;;7.43;4.93;;;;;;;;;;4978123;28;20415;-82
2022/08/07 02:04:27;;;;;;;8.10;5.20;;;;;;;;;;4961379;28;20286;-82
2022/08/07 02:07:00;;;;;;;11.38;7.60;;;;;;;;;;4979349;28;20031;-82
2022/08/07 02:09:28;;;;;;;7.30;5.30;;;;;;;;;;4978301;28;20030;-82
2022/08/07 02:11:56;;;;;;;8.48;5.38;;;;;;;;;;4961095;28;20034;-82
2022/08/07 02:14:25;;;;;;;8.10;4.90;;;;;;;;;;4961282;28;20042;-81
2022/08/07 02:16:53;;;;;;;8.95;5.20;;;;;;;;;;4961445;28;20030;-81
2022/08/07 02:19:20;;;;;;;9.27;5.20;;;;;;;;;;4961161;28;20034;-81
2022/08/07 02:21:48;;;;;;;8.48;5.38;;;;;;;;;;4977300;28;20427;-80
2022/08/07 02:24:14;;;;;;;9.20;5.32;;;;;;;;;;4977073;28;20027;-82
2022/08/07 02:26:41;;;;;;;8.05;5.28;;;;;;;;;;4961245;28;20058;-82
2022/08/07 02:29:09;;;;;;;7.85;4.90;;;;;;;;;;4977398;28;20042;-82
2022/08/07 02:31:36;;;;;;;7.05;5.35;;;;;;;;;;4961869;28;20046;-82
2022/08/07 02:34:04;;;;;;;9.35;5.07;;;;;;;;;;4976691;28;20673;-82
2022/08/07 02:36:33;;;;;;;7.38;5.13;;;;;;;;;;4977496;28;20504;-81
2022/08/07 02:39:06;;;;;;;;;;;;;;;;;;4977620;28;20045;-80
2022/08/07 02:41:32;;;;;;;6.72;4.50;;;;;;;;;;4977104;28;19993;-82
2022/08/07 02:43:59;;;;;;;9.15;4.82;;;;;;;;;;4976714;28;20100;-80
2022/08/07 02:46:26;;;;;;;6.60;4.20;;;;;;;;;;4959853;28;20039;-82
2022/08/07 02:48:54;;;;;;;5.43;4.45;;;;;;;;;;4977025;28;20031;-82
2022/08/07 02:51:23;;;;;;;5.75;4.20;;;;;;;;;;4960778;28;20377;-82
2022/08/07 02:53:53;;;;;;;6.78;4.50;;;;;;;;;;4976347;28;20034;-81
2022/08/07 02:56:21;;;;;;;6.18;4.50;;;;;;;;;;4959909;28;20035;-82
2022/08/07 02:58:50;;;;;;;8.23;4.40;;;;;;;;;;4976830;28;20057;-81
2022/08/07 03:01:18;;;;;;;5.43;4.20;;;;;;;;;;4976893;28;20034;-82
2022/08/07 03:03:46;;;;;;;5.50;4.20;;;;;;;;;;4960642;28;20034;-81
2022/08/07 03:06:14;;;;;;;6.75;4.07;;;;;;;;;;4976350;28;20035;-81
2022/08/07 03:08:41;;;;;;;6.80;4.25;;;;;;;;;;4975747;28;20034;-81
2022/08/07 03:11:07;;;;;;;6.85;4.28;;;;;;;;;;4960527;28;20035;-82
2022/08/07 03:13:37;;;;;;;4.30;3.90;;;;;;;;;;4976500;28;20437;-82
2022/08/07 03:16:03;;;;;;;5.90;4.20;;;;;;;;;;4975354;28;20101;-82
2022/08/07 03:18:31;;;;;;;9.05;4.13;;;;;;;;;;4976530;28;20050;-82
2022/08/07 03:20:56;;;;;;;4.90;3.55;;;;;;;;;;4976861;28;20038;-81
2022/08/07 03:23:23;;;;;;;5.93;3.78;;;;;;;;;;4960485;28;20035;-82
2022/08/07 03:25:50;;;;;;;4.65;3.40;;;;;;;;;;4975615;28;20042;-81
2022/08/07 03:28:18;;;;;;;4.43;3.53;;;;;;;;;;4960416;28;20122;-82
2022/08/07 03:30:45;;;;;;;5.40;3.60;;;;;;;;;;4960539;28;20089;-82
2022/08/07 03:33:12;;;;;;;5.22;3.83;;;;;;;;;;4976394;28;20035;-81
2022/08/07 03:35:39;;;;;;;5.82;3.67;;;;;;;;;;4976152;28;20031;-82
2022/08/07 03:38:07;;;;;;;10.85;3.97;;;;;;;;;;4977608;28;20042;-80
2022/08/07 03:40:33;;;;;;;4.57;3.97;;;;;;;;;;4975896;28;20027;-81
2022/08/07 03:43:00;;;;;;;5.10;3.53;;;;;;;;;;4977193;28;20062;-81
2022/08/07 03:45:28;;;;;;;7.95;3.60;;;;;;;;;;4975121;28;20460;-81
2022/08/07 03:47:58;;;;;;;6.72;3.80;;;;;;;;;;4975995;28;20484;-81
2022/08/07 03:50:25;;;;;;;5.90;3.15;;;;;;;;;;4975434;28;20035;-81
2022/08/07 03:52:56;;;;;;;5.13;3.45;;;;;;;;;;4975687;28;20050;-81
2022/08/07 03:55:22;;;;;;;6.68;3.40;;;;;;;;;;4974763;28;20085;-80
2022/08/07 03:57:50;;;;;;;4.47;3.42;;;;;;;;;;4976428;28;20038;-80
2022/08/07 04:00:17;;;;;;;6.13;3.55;;;;;;;;;;4975366;28;20050;-80
2022/08/07 04:02:46;;;;;;;4.80;3.42;;;;;;;;;;4975514;28;20030;-79
2022/08/07 04:05:20;;;;;;;7.20;3.70;;;;;;;;;;4958988;28;20407;-80
2022/08/07 04:07:47;;;;;;;6.10;3.55;;;;;;;;;;4975341;28;20031;-81
2022/08/07 04:10:19;;;;;;;7.97;3.80;;;;;;;;;;4974301;28;20033;-83
2022/08/07 04:12:45;;;;;;;5.28;3.55;;;;;;;;;;4975129;28;20569;-83
2022/08/07 04:15:12;;;;;;;8.90;3.47;;;;;;;;;;4959211;28;20399;-82
2022/08/07 04:17:41;;;;;;;7.38;3.78;;;;;;;;;;4975628;28;20035;-82
2022/08/07 04:20:11;;;;;;;7.20;3.35;;;;;;;;;;4958826;28;20034;-82
2022/08/07 04:22:41;;;;;;;5.60;3.42;;;;;;;;;;4974816;28;20494;-81
2022/08/07 04:25:08;;;;;;;5.07;3.30;;;;;;;;;;4974271;28;20456;-82
2022/08/07 04:27:34;;;;;;;6.18;3.22;;;;;;;;;;4959263;28;20074;-82
2022/08/07 04:30:00;;;;;;;5.72;3.45;;;;;;;;;;4958966;28;20058;-82
2022/08/07 04:32:33;;;;;;;5.05;2.75;;;;;;;;;;4959045;28;20037;-82
2022/08/07 04:35:01;;;;;;;4.95;3.10;;;;;;;;;;4974459;28;20030;-83
2022/08/07 04:37:27;;;;;;;3.22;2.90;;;;;;;;;;4976004;28;20084;-82
2022/08/07 04:39:53;;;;;;;5.82;3.10;;;;;;;;;;4974841;28;20035;-81
2022/08/07 04:42:19;;;;;;;5.38;3.25;;;;;;;;;;4974588;28;20035;-81
2022/08/07 04:44:45;;;;;;;3.97;3.08;;;;;;;;;;4958177;28;20116;-82
2022/08/07 04:47:22;;;;;;;6.78;3.30;;;;;;;;;;4975201;28;20039;-82
2022/08/07 04:50:01;;;;;;;6.55;3.25;;;;;;;;;;4974985;28;20141;-81
2022/08/07 04:52:53;;;;;;;3.78;2.83;;;;;;;;;;4974927;28;20041;-81
2022/08/07 04:55:33;;;;;;;4.30;3.22;;;;;;;;;;4957228;28;20082;-82
2022/08/07 04:58:21;;;;;;;4.50;3.33;;;;;;;;;;4974307;28;20030;-81
2022/08/07 05:01:20;;;;;;;3.83;3.40;;;;;;;;;;4960740;28;20031;-81
2022/08/07 05:03:59;;;;;;;5.60;3.60;;;;;;;;;;4967742;28;20113;-83
2022/08/07 05:06:30;;;;;;;4.28;3.58;;;;;;;;;;4974544;28;20045;-82
2022/08/07 05:09:36;;;;;;;5.45;4.15;;;;;;;;;;4974053;28;20054;-83
2022/08/07 05:12:06;;;;;;;6.45;4.40;;;;;;;;;;4979914;28;20125;-82
2022/08/07 05:14:44;;;;;;;7.57;4.55;;;;;;;;;;4977791;28;20042;-82
2022/08/07 05:17:13;;;;;;;6.82;4.63;;;;;;;;;;4978474;28;20125;-82
2022/08/07 05:19:43;;;;;;;6.13;4.57;;;;;;;;;;4978382;28;20031;-82
2022/08/07 05:22:11;;;;;;;7.47;4.70;;;;;;;;;;4978616;28;20035;-82
2022/08/07 05:24:40;;;;;;;8.68;4.80;;;;;;;;;;4961520;28;20042;-82
2022/08/07 05:27:11;;;;;;;9.55;4.55;;;;;;;;;;4978482;28;20038;-82
2022/08/07 05:29:38;;;;;;;6.18;4.57;;;;;;;;;;4978264;28;20031;-82
2022/08/07 05:32:07;;;;;;;5.85;4.50;;;;;;;;;;4979850;28;20022;-82
2022/08/07 05:34:35;;;;;;;7.03;4.97;;;;;;;;;;4978676;28;20495;-80
2022/08/07 05:37:02;;;;;;;5.78;4.93;;;;;;;;;;4962776;28;20207;-82
2022/08/07 05:39:40;;;;;;;7.60;4.60;;;;;;;;;;4978446;28;20034;-83
2022/08/07 05:42:06;;;;;;;5.50;4.32;;;;;;;;;;4978921;28;20031;-82
2022/08/07 05:44:35;;;;;;;5.82;4.00;;;;;;;;;;4978456;28;20518;-83
2022/08/07 05:47:03;;;;;;;5.35;4.40;;;;;;;;;;4978982;28;20038;-83
2022/08/07 05:49:29;;;;;;;7.18;4.13;;;;;;;;;;4977254;28;20406;-81
2022/08/07 05:51:55;;;;;;;5.53;4.10;;;;;;;;;;4977437;28;20062;-82
2022/08/07 05:54:22;;;;;;;4.32;3.72;;;;;;;;;;4960375;28;20503;-80
2022/08/07 05:56:48;;;;;;;7.53;4.13;;;;;;;;;;4977723;28;20129;-81
2022/08/07 05:59:19;;;;;;;7.78;4.10;;;;;;;;;;4978409;28;20105;-82
2022/08/07 06:01:49;;;;;;;5.28;4.25;;;;;;;;;;4977611;28;20034;-81
2022/08/07 06:04:19;;;;;;;4.97;4.30;;;;;;;;;;4976992;28;20563;-81
2022/08/07 06:06:45;;;;;;;5.43;3.78;;;;;;;;;;4978449;28;20027;-81
2022/08/07 06:09:14;;;;;;;6.25;4.20;;;;;;;;;;4975997;28;20039;-80
2022/08/07 06:11:44;;;;;;;5.63;4.35;;;;;;;;;;4962218;28;20045;-82
2022/08/07 06:14:10;;;;;;;7.05;4.63;;;;;;;;;;4977020;28;20170;-81
2022/08/07 06:16:37;;;;;;;6.05;4.18;;;;;;;;;;4977747;28;20026;-81
2022/08/07 06:19:04;;;;;;;8.27;4.47;;;;;;;;;;4976885;28;20039;-80
2022/08/07 06:21:32;;;;;;;6.78;4.32;;;;;;;;;;4960064;28;20082;-81
2022/08/07 06:23:59;;;;;;;6.18;4.47;;;;;;;;;;4976535;28;20050;-81
2022/08/07 06:26:25;;;;;;;6.38;4.10;;;;;;;;;;4976843;28;20042;-81
2022/08/07 06:28:55;;;;;;;6.70;4.95;;;;;;;;;;4976936;28;20570;-82
2022/08/07 06:31:22;;;;;;;6.85;5.30;;;;;;;;;;4976785;28;20026;-81
2022/08/07 06:33:47;;;;;;;5.20;4.15;;;;;;;;;;4978147;28;20403;-82
2022/08/07 06:36:14;;;;;;;9.50;4.82;;;;;;;;;;4976079;28;20125;-82
2022/08/07 06:38:49;;;;;;;9.30;5.03;;;;;;;;;;4976336;28;20069;-81
2022/08/07 06:41:27;;;;;;;6.28;4.90;;;;;;;;;;4960903;28;20082;-81
2022/08/07 06:43:55;;;;;;;7.47;4.38;;;;;;;;;;4976604;28;20122;-81
2022/08/07 06:46:23;;;;;;;7.05;4.93;;;;;;;;;;4960734;28;20114;-82
2022/08/07 06:48:49;;;;;;;6.30;5.10;;;;;;;;;;4961183;28;20445;-82
2022/08/07 06:51:26;;;;;;;8.02;4.80;;;;;;;;;;4976725;28;20046;-81
2022/08/07 06:53:56;;;;;;;9.57;5.43;;;;;;;;;;4977352;28;20038;-81
2022/08/07 06:56:38;;;;;;;8.40;5.22;;;;;;;;;;4978218;28;20031;-82
2022/08/07 06:59:12;;;;;;;6.60;4.55;;;;;;;;;;4960953;28;20113;-81
2022/08/07 07:01:43;;;;;;;8.32;5.50;;;;;;;;;;4976784;28;20531;-82
2022/08/07 07:04:09;;;;;;;8.73;5.60;;;;;;;;;;4973918;28;20078;-82
2022/08/07 07:06:38;;;;;;;9.90;5.70;;;;;;;;;;4976176;28;20041;-82
2022/08/07 07:09:24;;;;;;;8.25;5.47;;;;;;;;;;4975780;28;20039;-83
2022/08/07 07:12:02;;;;;;;9.23;6.03;;;;;;;;;;4976946;28;20039;-82
2022/08/07 07:14:35;;;;;;;8.95;6.05;;;;;;;;;;4977337;28;20031;-82
2022/08/07 07:17:07;;;;;;;8.27;6.28;;;;;;;;;;4976923;28;20041;-82
2022/08/07 07:19:42;;;;;;;7.40;5.60;;;;;;;;;;4977986;28;20415;-82
2022/08/07 07:22:09;;;;;;;10.20;6.03;;;;;;;;;;4978623;28;20117;-83
2022/08/07 07:24:35;;;;;;;10.63;5.80;;;;;;;;;;4976974;28;20034;-83
2022/08/07 07:27:02;;;;;;;8.27;6.47;;;;;;;;;;4962596;28;20480;-84
2022/08/07 07:29:33;;;;;;;6.70;5.53;;;;;;;;;;4976868;28;20447;-84
2022/08/07 07:32:02;;;;;;;8.60;5.85;;;;;;;;;;4977295;28;20483;-84
2022/08/07 07:34:30;;;;;;;6.75;6.05;;;;;;;;;;4975525;28;20038;-84
2022/08/07 07:36:58;;;;;;;8.63;6.88;;;;;;;;;;4976422;28;20066;-83
2022/08/07 07:39:25;;;;;;;9.18;7.07;;;;;;;;;;4977056;28;20100;-83
2022/08/07 07:41:51;;;;;;;10.75;7.28;;;;;;;;;;4977057;28;20109;-84
2022/08/07 07:44:19;;;;;;;9.07;6.43;;;;;;;;;;4976330;28;20326;-83
2022/08/07 07:46:48;;;;;;;9.43;6.63;;;;;;;;;;4975943;28;20035;-83
2022/08/07 07:49:15;;;;;;;9.63;7.07;;;;;;;;;;4977069;28;20564;-83
2022/08/07 07:51:42;;;;;;;10.57;7.20;;;;;;;;;;4976906;28;20042;-83
2022/08/07 07:54:10;;;;;;;8.50;6.28;;;;;;;;;;4975103;28;20035;-83
2022/08/07 07:56:37;;;;;;;8.27;6.35;;;;;;;;;;4976991;28;20087;-83
2022/08/07 07:59:04;;;;;;;11.38;6.88;;;;;;;;;;4976066;28;20516;-83
2022/08/07 08:01:32;;;;;;;9.82;6.25;;;;;;;;;;4977576;28;20045;-83
2022/08/07 08:04:01;;;;;;;8.68;5.55;;;;;;;;;;4975986;28;20472;-81
2022/08/07 08:06:28;;;;;;;8.57;6.65;;;;;;;;;;4975792;28;20030;-83
2022/08/07 08:08:54;;;;;;;10.52;6.10;;;;;;;;;;4975393;28;20502;-83
2022/08/07 08:11:20;;;;;;;7.75;5.70;;;;;;;;;;4975467;28;20479;-85
2022/08/07 08:13:47;;;;;;;7.03;5.90;;;;;;;;;;4975693;28;20096;-83
2022/08/07 08:16:19;;;;;;;7.75;5.68;;;;;;;;;;4976331;28;20042;-83
2022/08/07 08:18:47;;;;;;;7.00;5.68;;;;;;;;;;4975724;28;20039;-83
2022/08/07 08:27:08;;;;;;;8.20;6.45;;;;;;;;;;4975534;28;20059;-83
2022/08/07 08:30:05;;;;;;;7.63;6.40;;;;;;;;;;4975360;28;20126;-83
2022/08/07 08:32:35;;;;;;;9.15;6.47;;;;;;;;;;4978034;28;20042;-84
2022/08/07 08:35:01;;;;;;;7.07;6.20;;;;;;;;;;4976258;28;20121;-84
2022/08/07 08:37:29;;;;;;;9.27;6.28;;;;;;;;;;4978260;28;20488;-82
2022/08/07 08:39:56;;;;;;;10.45;5.97;;;;;;;;;;4977817;28;20031;-82
2022/08/07 08:42:26;;;;;;;10.13;6.80;;;;;;;;;;4975675;28;20054;-82
2022/08/07 08:45:30;;;;;;;7.47;6.03;;;;;;;;;;4975412;28;20455;-84
2022/08/07 08:48:37;;;;;;;7.40;5.72;;;;;;;;;;4977958;28;20027;-85
2022/08/07 08:51:10;;;;;;;6.70;5.43;;;;;;;;;;4978365;28;20035;-83
2022/08/07 08:53:56;;;;;;;6.68;5.32;;;;;;;;;;4978605;28;20106;-83
2022/08/07 08:56:29;;;;;;;7.03;5.32;;;;;;;;;;4978693;28;20451;-82
2022/08/07 08:59:00;;;;;;;7.65;5.10;;;;;;;;;;4977607;28;20475;-84
2022/08/07 09:01:36;;;;;;;6.18;4.93;;;;;;;;;;4977979;28;20039;-83
2022/08/07 09:04:07;;;;;;;6.85;4.65;;;;;;;;;;4978330;28;20046;-83
2022/08/07 09:06:42;;;;;;;6.22;4.40;;;;;;;;;;4976931;28;20403;-84
2022/08/07 09:16:53;;;;;;;5.30;4.15;;;;;;;;;;5077584;28;20044;-85
2022/08/07 09:19:21;;;;;;;7.18;4.20;;;;;;;;;;5075619;28;20071;-83
2022/08/07 09:22:10;;;;;;;5.78;4.10;;;;;;;;;;5076742;28;20401;-82
2022/08/07 09:24:46;;;;;;;5.25;3.75;;;;;;;;;;5076505;28;20032;-84
2022/08/07 09:27:24;;;;;;;5.53;3.97;;;;;;;;;;5059082;28;20032;-86
2022/08/07 09:29:51;;;;;;;5.80;3.90;;;;;;;;;;5077392;28;20040;-84
2022/08/07 09:32:32;;;;;;;6.00;4.18;;;;;;;;;;5077309;28;20457;-82
2022/08/07 09:35:21;;;;;;;8.07;5.00;;;;;;;;;;5076937;28;20050;-84
2022/08/07 09:38:12;;;;;;;5.57;3.92;;;;;;;;;;5060863;28;20074;-84
2022/08/07 09:40:53;;;;;;;5.20;3.85;;;;;;;;;;5077963;28;20044;-83
2022/08/07 09:43:27;;;;;;;5.55;4.28;;;;;;;;;;5077257;28;20068;-85
2022/08/07 09:46:08;;;;;;;4.50;3.78;;;;;;;;;;5076321;28;20115;-84
2022/08/07 09:48:55;;;;;;;6.65;3.85;;;;;;;;;;5077125;28;20028;-84
2022/08/07 09:51:36;;;;;;;5.28;3.63;;;;;;;;;;5077476;28;20106;-86
2022/08/07 09:54:05;;;;;;;8.90;3.92;;;;;;;;;;5077105;28;20052;-84
2022/08/07 09:56:56;;;;;;;4.93;3.88;;;;;;;;;;5080866;28;20020;-84
2022/08/07 09:59:21;;;;;;;5.18;3.40;;;;;;;;;;5062593;28;20032;-84
2022/08/07 10:02:18;;;;;;;6.35;3.50;;;;;;;;;;5081468;28;20036;-86
2022/08/07 10:05:17;;;;;;;5.05;3.60;;;;;;;;;;5062669;28;20035;-84
2022/08/07 10:08:20;;;;;;;3.88;3.47;;;;;;;;;;5081488;28;20104;-84
2022/08/07 10:11:07;;;;;;;6.97;3.55;;;;;;;;;;5062374;28;20127;-84
2022/08/07 10:14:01;;;;;;;3.80;3.17;;;;;;;;;;5081050;28;20040;-86
2022/08/07 10:16:36;;;;;;;4.63;3.28;;;;;;;;;;5081028;28;20036;-84
2022/08/07 10:19:20;;;;;;;3.53;3.10;;;;;;;;;;5062215;28;20508;-84
2022/08/07 10:22:09;;;;;;;8.10;3.38;;;;;;;;;;5079577;28;20165;-83
2022/08/07 10:24:59;;;;;;;4.97;3.40;;;;;;;;;;5061590;28;20032;-84
2022/08/07 10:27:40;;;;;;;5.03;3.70;;;;;;;;;;5080547;28;20052;-84
2022/08/07 10:30:08;;;;;;;6.68;3.65;;;;;;;;;;5080409;28;20029;-84
2022/08/07 10:32:52;;;;;;;9.43;4.90;;;;;;;;;;5080552;28;20052;-84
2022/08/07 10:35:34;;;;;;;;;;;;;;;;;;5080104;28;20032;-84
2022/08/07 10:38:37;;;;;;;3.80;3.40;;;;;;;;;;5080018;28;19977;-84
2022/08/07 10:41:02;;;;;;;4.90;3.60;;;;;;;;;;5080116;28;20124;-84
2022/08/07 10:43:42;;;;;;;5.50;3.65;;;;;;;;;;5079479;28;20106;-84
2022/08/07 10:46:19;;;;;;;3.78;3.17;;;;;;;;;;5060764;28;20028;-82
2022/08/07 10:48:47;;;;;;;4.10;3.20;;;;;;;;;;5079324;28;20047;-81
2022/08/07 10:51:18;;;;;;;6.22;3.30;;;;;;;;;;5060984;28;20385;-83
2022/08/07 10:54:02;;;;;;;4.65;3.42;;;;;;;;;;5079770;28;20032;-84
2022/08/07 10:57:18;;;;;;;4.93;3.70;;;;;;;;;;5079271;28;20032;-85
2022/08/07 11:00:10;;;;;;;4.60;3.67;;;;;;;;;;5062322;28;20036;-85
2022/08/07 11:02:36;;;;;;;4.88;3.60;;;;;;;;;;5080286;28;20021;-86
2022/08/07 11:05:31;;;;;;;6.70;3.70;;;;;;;;;;5079670;28;20071;-83
2022/08/07 11:08:08;;;;;;;5.35;3.50;;;;;;;;;;5078847;28;20033;-84
2022/08/07 11:10:39;;;;;;;4.40;3.60;;;;;;;;;;5077947;28;20037;-85
2022/08/07 11:13:37;;;;;;;4.60;3.70;;;;;;;;;;5080273;28;20056;-85
2022/08/07 11:16:21;;;;;;;6.00;3.80;;;;;;;;;;5055476;28;20047;-85
2022/08/07 11:19:02;;;;;;;4.28;3.38;;;;;;;;;;5079114;28;20105;-84
2022/08/07 11:21:53;;;;;;;5.72;3.70;;;;;;;;;;5061804;28;20131;-85
2022/08/07 11:24:28;;;;;;;6.00;3.42;;;;;;;;;;5079171;28;20106;-83
2022/08/07 11:27:06;;;;;;;4.57;3.30;;;;;;;;;;5079412;28;20067;-85
2022/08/07 11:29:44;;;;;;;3.95;3.47;;;;;;;;;;5079039;28;20150;-85
2022/08/07 11:32:09;;;;;;;6.55;3.50;;;;;;;;;;5061266;28;20416;-84
2022/08/07 11:35:10;;;;;;;5.85;3.10;;;;;;;;;;5078990;28;20031;-85
2022/08/07 11:37:49;;;;;;;5.13;3.38;;;;;;;;;;5057507;28;20051;-83
2022/08/07 11:41:01;;;;;;;4.72;3.10;;;;;;;;;;5079253;28;20041;-84
2022/08/07 11:43:29;;;;;;;6.00;3.60;;;;;;;;;;5047285;28;20048;-84
2022/08/07 11:46:17;;;;;;;4.50;3.60;;;;;;;;;;5078239;28;20036;-83
2022/08/07 11:49:08;;;;;;;10.13;3.20;;;;;;;;;;5078425;28;20054;-84
2022/08/07 11:51:36;;;;;;;5.38;2.88;;;;;;;;;;5061009;28;20123;-83
2022/08/07 11:54:14;;;;;;;3.33;2.90;;;;;;;;;;5078208;28;20040;-84
2022/08/07 11:57:11;;;;;;;4.95;3.10;;;;;;;;;;5078655;28;20055;-84
2022/08/07 11:59:37;;;;;;;4.00;2.88;;;;;;;;;;5079023;28;20041;-84
2022/08/07 12:02:25;;;;;;;6.30;2.83;;;;;;;;;;5078950;28;20093;-83
2022/08/07 12:04:56;;;;;;;4.13;2.95;;;;;;;;;;5031237;28;20041;-85
2022/08/07 12:07:36;;;;;;;3.60;2.80;;;;;;;;;;5079351;28;20047;-84
2022/08/07 12:10:08;;;;;;;5.72;2.88;;;;;;;;;;5077614;28;20417;-84
2022/08/07 12:12:42;;;;;;;3.47;2.60;;;;;;;;;;5060739;28;20043;-84
2022/08/07 12:15:18;;;;;;;3.72;2.70;;;;;;;;;;5078028;28;20047;-84
2022/08/07 12:18:06;;;;;;;3.88;2.90;;;;;;;;;;5060585;28;20029;-84
2022/08/07 12:20:43;;;;;;;5.65;2.75;;;;;;;;;;5078313;28;20043;-84
2022/08/07 12:23:15;;;;;;;5.47;2.80;;;;;;;;;;5060595;28;20119;-84
2022/08/07 12:26:36;;;;;;;4.50;2.70;;;;;;;;;;5077595;28;20429;-83
2022/08/07 12:29:24;;;;;;;3.05;2.75;;;;;;;;;;5017758;28;20095;-84
2022/08/07 12:32:02;;;;;;;3.47;2.65;;;;;;;;;;5060219;28;20032;-87
2022/08/07 12:34:31;;;;;;;3.13;2.55;;;;;;;;;;5059626;28;20059;-85
2022/08/07 12:36:59;;;;;;;5.15;2.50;;;;;;;;;;5078210;28;20036;-85
2022/08/07 12:39:28;;;;;;;4.43;2.40;;;;;;;;;;5077844;28;20092;-83
2022/08/07 12:41:54;;;;;;;5.10;2.40;;;;;;;;;;5077674;28;20048;-83
2022/08/07 12:44:22;;;;;;;4.63;2.83;;;;;;;;;;5076866;28;20174;-83
2022/08/07 12:47:12;;;;;;;6.53;2.95;;;;;;;;;;5077563;28;20039;-83
2022/08/07 12:49:59;;;;;;;4.82;3.00;;;;;;;;;;5076440;28;20043;-85
2022/08/07 12:52:33;;;;;;;4.38;2.70;;;;;;;;;;5076079;28;20071;-85
2022/08/07 12:55:06;;;;;;;4.57;2.88;;;;;;;;;;5075728;28;20040;-87
2022/08/07 12:57:35;;;;;;;3.05;2.60;;;;;;;;;;5076192;28;20473;-84
2022/08/07 13:00:06;;;;;;;3.65;2.35;;;;;;;;;;5076220;28;20036;-86
2022/08/07 13:02:44;;;;;;;4.15;2.80;;;;;;;;;;5077317;28;20051;-84
2022/08/07 13:05:27;;;;;;;3.85;2.45;;;;;;;;;;5076541;28;20098;-84
2022/08/07 13:08:17;;;;;;;3.67;2.43;;;;;;;;;;5057041;28;20060;-84
2022/08/07 13:11:27;;;;;;;3.92;2.50;;;;;;;;;;5072704;28;20122;-83
2022/08/07 13:14:26;;;;;;;4.38;2.63;;;;;;;;;;5048783;28;20075;-83
2022/08/07 13:17:14;;;;;;;4.43;2.70;;;;;;;;;;5074525;28;20060;-84
2022/08/07 13:20:17;;;;;;;4.00;2.63;;;;;;;;;;5056880;28;20052;-81
2022/08/07 13:22:51;;;;;;;7.65;2.75;;;;;;;;;;5074523;28;20392;-84
2022/08/07 13:25:30;;;;;;;3.88;2.63;;;;;;;;;;5074932;28;20033;-83
2022/08/07 13:28:03;;;;;;;3.38;2.40;;;;;;;;;;5076173;28;20036;-84
2022/08/07 13:30:32;;;;;;;4.63;2.65;;;;;;;;;;5077707;28;20063;-84
2022/08/07 13:33:03;;;;;;;4.20;2.50;;;;;;;;;;5061293;28;20131;-84
2022/08/07 13:35:39;;;;;;;3.03;2.58;;;;;;;;;;5077780;28;20381;-84
2022/08/07 13:38:44;;;;;;;4.03;2.30;;;;;;;;;;5081054;28;20119;-85
2022/08/07 13:41:32;;;;;;;3.97;2.33;;;;;;;;;;5081105;28;20040;-83
2022/08/07 13:44:01;;;;;;;3.00;2.45;;;;;;;;;;5080251;28;20170;-82
2022/08/07 13:46:31;;;;;;;3.00;2.50;;;;;;;;;;5063950;28;20048;-87
2022/08/07 13:49:00;;;;;;;4.10;2.40;;;;;;;;;;5082257;28;20043;-84
2022/08/07 13:51:28;;;;;;;2.42;2.20;;;;;;;;;;5080638;28;20039;-84
2022/08/07 13:54:06;;;;;;;4.88;2.75;;;;;;;;;;5080605;28;20024;-85
2022/08/07 13:56:35;;;;;;;2.78;2.30;;;;;;;;;;5081152;28;20088;-84
2022/08/07 13:59:01;;;;;;;3.50;2.50;;;;;;;;;;5080556;28;20094;-83
2022/08/07 14:01:30;;;;;;;4.45;2.38;;;;;;;;;;5081516;28;20477;-83
2022/08/07 14:03:57;;;;;;;3.58;2.45;;;;;;;;;;5080586;28;20036;-81
2022/08/07 14:06:30;;;;;;;4.32;2.47;;;;;;;;;;5079315;28;20036;-83
2022/08/07 14:08:56;;;;;;;;;;;;;;;;;;5078340;28;20912;-82
2022/08/07 14:11:25;;;;;;;3.35;2.30;;;;;;;;;;5079421;28;20296;-82
2022/08/07 14:13:55;;;;;;;3.08;2.47;;;;;;;;;;5061799;28;20058;-83
2022/08/07 14:16:32;;;;;;;3.33;2.50;;;;;;;;;;5079837;28;20158;-84
2022/08/07 14:19:01;;;;;;;3.80;2.67;;;;;;;;;;5079401;28;20032;-82
2022/08/07 14:21:40;;;;;;;4.20;2.53;;;;;;;;;;5079916;28;20037;-83
2022/08/07 14:24:26;;;;;;;3.97;2.58;;;;;;;;;;5078462;28;20075;-82
2022/08/07 14:27:01;;;;;;;4.90;2.55;;;;;;;;;;5062106;28;20482;-81
2022/08/07 14:29:31;;;;;;;4.68;2.60;;;;;;;;;;5079837;28;20075;-85
2022/08/07 14:32:03;;;;;;;3.53;2.67;;;;;;;;;;5080574;28;20032;-82
2022/08/07 14:34:32;;;;;;;4.00;2.50;;;;;;;;;;5060945;28;20036;-82
2022/08/07 14:37:02;;;;;;;4.25;2.33;;;;;;;;;;5044662;28;20473;-82
2022/08/07 14:39:30;;;;;;;6.05;2.83;;;;;;;;;;5061226;28;20043;-82
2022/08/07 14:42:00;;;;;;;5.03;2.53;;;;;;;;;;5078206;28;20499;-82
2022/08/07 14:44:28;;;;;;;3.88;2.75;;;;;;;;;;5043882;28;20093;-82
2022/08/07 14:46:56;;;;;;;4.13;2.40;;;;;;;;;;5079081;28;20033;-81
2022/08/07 14:49:31;;;;;;;4.22;2.65;;;;;;;;;;5079270;28;20069;-81
2022/08/07 14:51:58;;;;;;;4.13;2.60;;;;;;;;;;5079754;28;20404;-81
2022/08/07 14:54:29;;;;;;;5.13;2.58;;;;;;;;;;5078564;28;20036;-81
2022/08/07 14:56:56;;;;;;;4.65;2.67;;;;;;;;;;5061531;28;20041;-81
2022/08/07 14:59:24;;;;;;;5.07;2.70;;;;;;;;;;5079896;28;20063;-85
2022/08/07 15:01:49;;;;;;;6.75;2.72;;;;;;;;;;5060502;28;20493;-82
2022/08/07 15:04:16;;;;;;;3.13;2.30;;;;;;;;;;5060466;28;20048;-82
2022/08/07 15:06:46;;;;;;;3.40;2.60;;;;;;;;;;5079148;28;20045;-82
2022/08/07 15:09:17;;;;;;;5.15;2.50;;;;;;;;;;5076837;28;20055;-82
2022/08/07 15:12:14;;;;;;;4.65;2.88;;;;;;;;;;5077610;28;20032;-82
2022/08/07 15:14:51;;;;;;;3.53;2.35;;;;;;;;;;5077632;28;20512;-85
2022/08/07 15:17:20;;;;;;;3.78;2.60;;;;;;;;;;5077170;28;20036;-82
2022/08/07 15:19:59;;;;;;;4.03;2.65;;;;;;;;;;5077351;28;20032;-82
2022/08/07 15:22:30;;;;;;;3.28;2.70;;;;;;;;;;5076188;28;20050;-81
2022/08/07 15:24:57;;;;;;;3.63;2.40;;;;;;;;;;5076666;28;20417;-82
2022/08/07 15:27:24;;;;;;;4.47;2.70;;;;;;;;;;5059079;28;20522;-82
2022/08/07 15:29:53;;;;;;;4.38;2.45;;;;;;;;;;5059163;28;20032;-81
2022/08/07 15:32:22;;;;;;;3.00;2.33;;;;;;;;;;5076979;28;20036;-79